Time;durP1;ratioP1;P1;durP2;ratioP2;P2;SDS_P1;SDS_P2;PMS_P1;PMS_P2;Temp;Humidity;BMP_temperature;BMP_pressure;BME280_temperature;BME280_humidity;BME280_pressure;Samples;Min_cycle;Max_cycle;Signal;HPM_P1;HPM_P2
2021/06/21 00:01:02;;;;;;;;;;;16.00;89.90;;;;;;5058029;28;20027;-69
2021/06/21 00:03:27;;;;;;;;;;;16.10;90.00;;;;;;5057492;28;20002;-68
2021/06/21 00:05:53;;;;;;;;;;;16.10;89.90;;;;;;5060636;28;19912;-68
2021/06/21 00:08:18;;;;;;;;;;;16.10;90.20;;;;;;5060002;28;19913;-67
2021/06/21 00:10:43;;;;;;;;;;;16.10;90.10;;;;;;5057042;28;20218;-68
2021/06/21 00:13:09;;;;;;;;;;;16.10;90.10;;;;;;5060965;28;19995;-68
2021/06/21 00:15:35;;;;;;;;;;;16.10;90.20;;;;;;5060340;28;19913;-68
2021/06/21 00:18:00;;;;;;;;;;;16.10;90.00;;;;;;5059257;28;19980;-68
2021/06/21 00:20:26;;;;;;;;;;;16.00;90.20;;;;;;5061442;28;19912;-68
2021/06/21 00:22:52;;;;;;;;;;;16.00;90.10;;;;;;5055316;28;20394;-67
2021/06/21 00:25:18;;;;;;;;;;;16.10;89.90;;;;;;5057660;28;19912;-67
2021/06/21 00:27:44;;;;;;;;;;;16.00;90.10;;;;;;5056339;28;19935;-68
2021/06/21 00:30:10;;;;;;;;;;;15.90;90.50;;;;;;5061292;28;19912;-68
2021/06/21 00:32:37;;;;;;;;;;;16.00;90.10;;;;;;5058700;28;19919;-68
2021/06/21 00:35:03;;;;;;;;;;;15.90;90.40;;;;;;5060255;28;20224;-67
2021/06/21 00:37:28;;;;;;;;;;;16.00;90.60;;;;;;5058582;28;20272;-68
2021/06/21 00:39:54;;;;;;;;;;;15.90;90.40;;;;;;5059445;28;19921;-68
2021/06/21 00:42:19;;;;;;;;;;;16.00;90.40;;;;;;5058801;28;20312;-68
2021/06/21 00:44:46;;;;;;;;;;;16.00;90.70;;;;;;5056345;28;19979;-68
2021/06/21 00:47:13;;;;;;;;;;;16.00;90.50;;;;;;5054214;28;19920;-68
2021/06/21 00:49:40;;;;;;;;;;;16.00;89.90;;;;;;5058984;28;20454;-68
2021/06/21 00:52:06;;;;;;;;;;;16.00;90.30;;;;;;5058135;28;19917;-67
2021/06/21 00:54:31;;;;;;;;;;;16.10;90.40;;;;;;5059278;28;19996;-67
2021/06/21 00:56:57;;;;;;;;;;;16.20;90.10;;;;;;5055684;28;20025;-67
2021/06/21 00:59:22;;;;;;;;;;;16.10;90.30;;;;;;5058758;28;19924;-67
2021/06/21 01:01:48;;;;;;;;;;;16.10;90.00;;;;;;5058974;28;19917;-67
2021/06/21 01:04:13;;;;;;;;;;;16.10;89.90;;;;;;5057895;28;20476;-68
2021/06/21 01:06:39;;;;;;;;;;;16.10;90.00;;;;;;5060542;28;19920;-67
2021/06/21 01:09:04;;;;;;;;;;;16.20;90.10;;;;;;5058185;28;19913;-67
2021/06/21 01:11:51;;;;;;;;;;;16.20;89.80;;;;;;5061762;28;19916;-67
2021/06/21 01:14:21;;;;;;;;;;;16.10;90.20;;;;;;5060109;28;20462;-67
2021/06/21 01:16:49;;;;;;;;;;;16.20;90.00;;;;;;5054580;28;19939;-68
2021/06/21 01:19:33;;;;;;;;;;;16.20;90.30;;;;;;5062394;28;19916;-67
2021/06/21 01:22:01;;;;;;;;;;;16.10;89.70;;;;;;5058655;28;19924;-68
2021/06/21 01:24:33;;;;;;;;;;;16.10;90.00;;;;;;5059249;28;19924;-68
2021/06/21 01:27:08;;;;;;;;;;;16.10;89.90;;;;;;5059930;28;19998;-67
2021/06/21 01:29:36;;;;;;;;;;;16.10;90.10;;;;;;5063719;28;20432;-68
2021/06/21 01:32:32;;;;;;;;;;;16.20;90.00;;;;;;5058881;28;19916;-67
2021/06/21 01:35:00;;;;;;;;;;;16.20;89.70;;;;;;5054283;28;19943;-68
2021/06/21 01:37:26;;;;;;;;;;;16.10;89.70;;;;;;5063051;28;19938;-68
2021/06/21 01:39:53;;;;;;;;;;;16.20;89.60;;;;;;5058659;28;20025;-68
2021/06/21 01:42:20;;;;;;;;;;;16.20;89.70;;;;;;5057919;28;19951;-67
2021/06/21 01:44:55;;;;;;;;;;;16.20;89.90;;;;;;5060059;28;19932;-69
2021/06/21 01:47:22;;;;;;;;;;;16.20;90.00;;;;;;5056835;28;20022;-68
2021/06/21 01:49:48;;;;;;;;;;;16.20;89.80;;;;;;5061011;28;19913;-67
2021/06/21 01:52:14;;;;;;;;;;;16.10;89.70;;;;;;5059446;28;19920;-69
2021/06/21 01:54:44;;;;;;;;;;;16.00;89.80;;;;;;5058589;28;19920;-68
2021/06/21 01:57:10;;;;;;;;;;;16.10;89.70;;;;;;5047384;28;19943;-67
2021/06/21 01:59:35;;;;;;;;;;;16.10;89.70;;;;;;5058743;28;19965;-68
2021/06/21 02:02:02;;;;;;;;;;;16.10;89.60;;;;;;5054360;28;20263;-68
2021/06/21 02:04:29;;;;;;;;;;;16.20;89.70;;;;;;5059698;28;20137;-69
2021/06/21 02:06:55;;;;;;;;;;;16.10;89.20;;;;;;5062412;28;19939;-68
2021/06/21 02:09:25;;;;;;;;;;;16.00;89.60;;;;;;5062378;28;19912;-68
2021/06/21 02:11:52;;;;;;;;;;;16.10;89.70;;;;;;5066265;28;20003;-67
2021/06/21 02:14:26;;;;;;;;;;;16.00;89.50;;;;;;5063110;28;20363;-68
2021/06/21 02:16:53;;;;;;;;;;;16.00;89.60;;;;;;5053862;28;20231;-68
2021/06/21 02:19:19;;;;;;;;;;;16.00;89.70;;;;;;5060140;28;20073;-68
2021/06/21 02:21:46;;;;;;;;;;;15.90;89.60;;;;;;5061723;28;19923;-68
2021/06/21 02:24:13;;;;;;;;;;;16.00;90.30;;;;;;5063350;28;19961;-68
2021/06/21 02:26:39;;;;;;;;;;;16.00;89.80;;;;;;5069053;28;20431;-68
2021/06/21 02:29:04;;;;;;;;;;;16.00;90.10;;;;;;5058769;28;20069;-68
2021/06/21 02:31:31;;;;;;;;;;;16.00;90.30;;;;;;5059583;28;19916;-67
2021/06/21 02:33:56;;;;;;;;;;;16.00;91.30;;;;;;5063305;28;20434;-67
2021/06/21 02:36:22;;;;;;;;;;;15.90;92.00;;;;;;5065493;28;19913;-69
2021/06/21 02:38:47;;;;;;;;;;;15.70;91.80;;;;;;5064213;28;20168;-69
2021/06/21 02:41:13;;;;;;;;;;;15.80;92.60;;;;;;5064148;28;19945;-69
2021/06/21 02:43:38;;;;;;;;;;;15.80;92.90;;;;;;5063628;28;19908;-69
2021/06/21 02:46:04;;;;;;;;;;;15.60;93.50;;;;;;5062308;28;19917;-70
2021/06/21 02:48:29;;;;;;;;;;;15.50;93.90;;;;;;5060824;28;19916;-70
2021/06/21 02:50:55;;;;;;;;;;;15.50;94.70;;;;;;5065243;28;20413;-70
2021/06/21 02:53:25;;;;;;;;;;;15.50;94.60;;;;;;5064823;28;20412;-68
2021/06/21 02:56:09;;;;;;;;;;;15.40;94.80;;;;;;5074700;28;19912;-70
2021/06/21 02:58:37;;;;;;;;;;;15.30;94.90;;;;;;5066488;28;19967;-69
2021/06/21 03:01:04;;;;;;;;;;;15.30;95.20;;;;;;5071646;28;19971;-70
2021/06/21 03:03:31;;;;;;;;;;;15.30;95.10;;;;;;5065006;28;19916;-69
2021/06/21 03:05:58;;;;;;;;;;;15.30;95.50;;;;;;5062998;28;19924;-69
2021/06/21 03:08:24;;;;;;;;;;;15.40;95.70;;;;;;5060588;28;19912;-70
2021/06/21 03:10:49;;;;;;;;;;;15.20;95.60;;;;;;5063678;28;19928;-69
2021/06/21 03:13:18;;;;;;;;;;;15.20;95.80;;;;;;5062140;28;19923;-69
2021/06/21 03:15:44;;;;;;;;;;;15.10;95.70;;;;;;5069756;28;19996;-69
2021/06/21 03:18:09;;;;;;;;;;;15.10;96.00;;;;;;5065743;28;20007;-70
2021/06/21 03:20:35;;;;;;;;;;;15.20;96.10;;;;;;5063209;28;19915;-70
2021/06/21 03:23:01;;;;;;;;;;;15.10;96.00;;;;;;5072331;28;20412;-70
2021/06/21 03:25:31;;;;;;;;;;;15.10;96.30;;;;;;5065844;28;20294;-69
2021/06/21 03:27:58;;;;;;;;;;;15.10;96.30;;;;;;5061006;28;20132;-70
2021/06/21 03:30:24;;;;;;;;;;;15.00;96.30;;;;;;5063984;28;20022;-70
2021/06/21 03:32:52;;;;;;;;;;;15.00;96.60;;;;;;5065731;28;19964;-70
2021/06/21 03:35:18;;;;;;;;;;;15.00;96.60;;;;;;5064265;28;19987;-70
2021/06/21 03:37:43;;;;;;;;;;;15.00;96.80;;;;;;5058335;28;19939;-70
2021/06/21 03:40:10;;;;;;;;;;;15.00;96.70;;;;;;5061795;28;20355;-69
2021/06/21 03:42:36;;;;;;;;;;;15.00;96.60;;;;;;5050858;28;20038;-70
2021/06/21 03:45:02;;;;;;;;;;;15.00;96.60;;;;;;5054368;28;19939;-70
2021/06/21 03:47:28;;;;;;;;;;;15.00;96.90;;;;;;5059532;28;20354;-69
2021/06/21 03:49:53;;;;;;;;;;;15.00;96.80;;;;;;5060149;28;19916;-70
2021/06/21 03:52:20;;;;;;;;;;;15.00;96.90;;;;;;5035915;28;20319;-70
2021/06/21 03:54:46;;;;;;;;;;;14.90;96.80;;;;;;5036742;28;20015;-70
2021/06/21 03:57:11;;;;;;;;;;;14.90;96.80;;;;;;5062228;28;20023;-70
2021/06/21 03:59:37;;;;;;;;;;;15.00;97.00;;;;;;5050436;28;19909;-70
2021/06/21 04:02:03;;;;;;;;;;;14.90;96.70;;;;;;5058845;28;19912;-70
2021/06/21 04:04:29;;;;;;;;;;;15.00;96.80;;;;;;5058386;28;19913;-70
2021/06/21 04:06:55;;;;;;;;;;;15.00;97.10;;;;;;5059567;28;19913;-70
2021/06/21 04:09:21;;;;;;;;;;;15.00;96.80;;;;;;5063563;28;20007;-70
2021/06/21 04:11:46;;;;;;;;;;;15.00;97.00;;;;;;5062322;28;19935;-70
2021/06/21 04:14:13;;;;;;;;;;;15.10;97.00;;;;;;5058576;28;19909;-70
2021/06/21 04:16:39;;;;;;;;;;;15.10;97.00;;;;;;5053319;28;19916;-69
2021/06/21 04:19:04;;;;;;;;;;;15.10;97.10;;;;;;5064652;28;20015;-70
2021/06/21 04:21:30;;;;;;;;;;;15.20;97.00;;;;;;5051928;28;19917;-64
2021/06/21 04:23:55;;;;;;;;;;;15.10;97.10;;;;;;5056478;28;20266;-64
2021/06/21 04:26:22;;;;;;;;;;;15.20;97.10;;;;;;5058138;28;19920;-63
2021/06/21 04:28:47;;;;;;;;;;;15.20;97.10;;;;;;5064361;28;20262;-63
2021/06/21 04:31:13;;;;;;;;;;;15.20;97.00;;;;;;5057693;28;19913;-65
2021/06/21 04:33:38;;;;;;;;;;;15.20;97.00;;;;;;5059751;28;19948;-64
2021/06/21 04:36:04;;;;;;;;;;;15.30;97.20;;;;;;5043315;28;19938;-64
2021/06/21 04:38:30;;;;;;;;;;;15.20;97.00;;;;;;5056980;28;20280;-65
2021/06/21 04:40:55;;;;;;;;;;;15.20;97.00;;;;;;5064488;28;20651;-64
2021/06/21 04:43:21;;;;;;;;;;;15.20;96.80;;;;;;5063968;28;20343;-64
2021/06/21 04:45:46;;;;;;;;;;;15.20;97.00;;;;;;5057661;28;19919;-64
2021/06/21 04:48:12;;;;;;;;;;;15.20;97.10;;;;;;5057930;28;20011;-65
2021/06/21 04:50:39;;;;;;;;;;;15.30;97.30;;;;;;5057715;28;20019;-64
2021/06/21 04:53:05;;;;;;;;;;;15.30;97.30;;;;;;5057611;28;20046;-65
2021/06/21 04:55:31;;;;;;;;;;;15.30;97.10;;;;;;5061283;28;20014;-64
2021/06/21 04:57:56;;;;;;;;;;;15.30;97.20;;;;;;5056311;28;20256;-64
2021/06/21 05:00:23;;;;;;;;;;;15.40;97.30;;;;;;5059483;28;19943;-64
2021/06/21 05:02:49;;;;;;;;;;;15.40;97.40;;;;;;5058107;28;19985;-64
2021/06/21 05:05:15;;;;;;;;;;;15.50;97.30;;;;;;5055756;28;19912;-64
2021/06/21 05:07:41;;;;;;;;;;;15.40;97.20;;;;;;5052326;28;20348;-64
2021/06/21 05:10:08;;;;;;;;;;;15.40;97.20;;;;;;5060403;28;19923;-64
2021/06/21 05:12:33;;;;;;;;;;;15.40;97.30;;;;;;5060464;28;20015;-64
2021/06/21 05:14:59;;;;;;;;;;;15.40;97.40;;;;;;5061593;28;20385;-64
2021/06/21 05:17:24;;;;;;;;;;;15.50;97.40;;;;;;5038857;28;19917;-64
2021/06/21 05:19:50;;;;;;;;;;;15.50;97.40;;;;;;5057004;28;19912;-64
2021/06/21 05:22:15;;;;;;;;;;;15.50;97.30;;;;;;5057290;28;20282;-64
2021/06/21 05:24:41;;;;;;;;;;;15.50;97.40;;;;;;5058145;28;19920;-65
2021/06/21 05:27:07;;;;;;;;;;;15.50;97.50;;;;;;5056846;28;20290;-64
2021/06/21 05:29:33;;;;;;;;;;;15.60;97.40;;;;;;5064652;28;19987;-65
2021/06/21 05:31:59;;;;;;;;;;;15.50;97.40;;;;;;5053596;28;19988;-65
2021/06/21 05:34:25;;;;;;;;;;;15.60;97.50;;;;;;5053851;28;19913;-64
2021/06/21 05:36:51;;;;;;;;;;;15.60;97.30;;;;;;5052456;28;19917;-64
2021/06/21 05:39:16;;;;;;;;;;;15.60;97.30;;;;;;5060764;28;19923;-64
2021/06/21 05:41:42;;;;;;;;;;;15.60;97.40;;;;;;5048809;28;19932;-64
2021/06/21 05:44:07;;;;;;;;;;;15.70;97.40;;;;;;5060134;28;20054;-63
2021/06/21 05:46:33;;;;;;;;;;;15.70;97.30;;;;;;5057982;28;20026;-64
2021/06/21 05:48:58;;;;;;;;;;;15.70;97.20;;;;;;5067853;28;20277;-65
2021/06/21 05:51:24;;;;;;;;;;;15.70;97.20;;;;;;5056943;28;19913;-64
2021/06/21 05:53:49;;;;;;;;;;;15.70;97.20;;;;;;5035358;28;19921;-64
2021/06/21 05:56:15;;;;;;;;;;;15.70;97.30;;;;;;5052137;28;20477;-65
2021/06/21 05:58:41;;;;;;;;;;;15.60;97.00;;;;;;5044443;28;20024;-64
2021/06/21 06:01:06;;;;;;;;;;;15.60;97.20;;;;;;5059125;28;19988;-64
2021/06/21 06:03:32;;;;;;;;;;;15.60;97.20;;;;;;5059387;28;20545;-64
2021/06/21 06:05:58;;;;;;;;;;;15.60;97.30;;;;;;5058214;28;19923;-66
2021/06/21 06:08:24;;;;;;;;;;;15.60;97.30;;;;;;5058278;28;19951;-64
2021/06/21 06:10:49;;;;;;;;;;;15.60;97.20;;;;;;5054706;28;20013;-65
2021/06/21 06:13:15;;;;;;;;;;;15.60;97.30;;;;;;5056555;28;20240;-64
2021/06/21 06:15:40;;;;;;;;;;;15.50;97.20;;;;;;5061783;28;19913;-65
2021/06/21 06:18:06;;;;;;;;;;;15.50;97.30;;;;;;5059387;28;19938;-64
2021/06/21 06:20:31;;;;;;;;;;;15.40;97.10;;;;;;5055647;28;19932;-65
2021/06/21 06:22:57;;;;;;;;;;;15.50;97.20;;;;;;5054782;28;19916;-64
2021/06/21 06:25:25;;;;;;;;;;;15.40;97.20;;;;;;5055737;28;20247;-64
2021/06/21 06:27:51;;;;;;;;;;;15.40;97.40;;;;;;5052368;28;20314;-64
2021/06/21 06:30:16;;;;;;;;;;;15.40;97.50;;;;;;5058983;28;19924;-64
2021/06/21 06:32:42;;;;;;;;;;;15.20;97.20;;;;;;5055217;28;19936;-64
2021/06/21 06:35:08;;;;;;;;;;;15.30;97.60;;;;;;5060197;28;20267;-64
2021/06/21 06:37:34;;;;;;;;;;;15.30;97.60;;;;;;5053979;28;20393;-63
2021/06/21 06:39:59;;;;;;;;;;;15.20;97.50;;;;;;5056059;28;19994;-63
2021/06/21 06:42:25;;;;;;;;;;;15.20;97.50;;;;;;5055538;28;20007;-64
2021/06/21 06:44:50;;;;;;;;;;;15.10;97.60;;;;;;5056800;28;20414;-64
2021/06/21 06:47:16;;;;;;;;;;;15.10;97.60;;;;;;5057057;28;19913;-63
2021/06/21 06:49:42;;;;;;;;;;;15.10;97.70;;;;;;5054250;28;19913;-64
2021/06/21 06:52:07;;;;;;;;;;;15.10;97.80;;;;;;5054124;28;20352;-65
2021/06/21 06:57:11;;;;;;;;;;;15.20;98.00;;;;;;5068998;28;19944;-65
2021/06/21 06:59:37;;;;;;;;;;;15.10;97.90;;;;;;5057830;28;20240;-64
2021/06/21 07:02:11;;;;;;;;;;;15.00;97.90;;;;;;5063412;28;20265;-64
2021/06/21 07:04:37;;;;;;;;;;;15.00;97.90;;;;;;5064669;28;19973;-65
2021/06/21 07:07:03;;;;;;;;;;;14.90;98.10;;;;;;5060635;28;19925;-65
2021/06/21 07:09:30;;;;;;;;;;;14.80;98.20;;;;;;5062776;28;20429;-64
2021/06/21 07:11:56;;;;;;;;;;;14.90;98.30;;;;;;5060708;28;20007;-65
2021/06/21 07:14:22;;;;;;;;;;;14.80;98.30;;;;;;5055314;28;19999;-64
2021/06/21 07:16:48;;;;;;;;;;;14.80;98.40;;;;;;5064212;28;19920;-65
2021/06/21 07:19:14;;;;;;;;;;;14.90;98.40;;;;;;5061799;28;19913;-64
2021/06/21 07:21:40;;;;;;;;;;;15.00;98.60;;;;;;5054963;28;19959;-65
2021/06/21 07:24:06;;;;;;;;;;;15.00;98.50;;;;;;5057901;28;19962;-65
2021/06/21 07:26:31;;;;;;;;;;;15.10;98.70;;;;;;5058878;28;20000;-65
2021/06/21 07:28:57;;;;;;;;;;;15.10;98.50;;;;;;5051080;28;19913;-65
2021/06/21 07:31:23;;;;;;;;;;;15.00;98.30;;;;;;5062744;28;19928;-65
2021/06/21 07:33:48;;;;;;;;;;;15.00;98.30;;;;;;5061297;28;19970;-65
2021/06/21 07:36:14;;;;;;;;;;;15.10;98.40;;;;;;5060356;28;20371;-65
2021/06/21 07:38:40;;;;;;;;;;;15.10;98.20;;;;;;5067750;28;19920;-65
2021/06/21 07:41:06;;;;;;;;;;;15.10;98.20;;;;;;5060349;28;20266;-64
2021/06/21 07:43:31;;;;;;;;;;;15.00;97.80;;;;;;5059747;28;19912;-64
2021/06/21 07:45:57;;;;;;;;;;;15.00;97.80;;;;;;5060422;28;19916;-64
2021/06/21 07:48:22;;;;;;;;;;;15.20;98.10;;;;;;5056647;28;20510;-64
2021/06/21 07:50:48;;;;;;;;;;;15.20;97.80;;;;;;5060185;28;19948;-64
2021/06/21 07:53:14;;;;;;;;;;;15.20;97.90;;;;;;5065363;28;19962;-64
2021/06/21 07:55:39;;;;;;;;;;;15.40;97.90;;;;;;5069816;28;19931;-64
2021/06/21 07:58:05;;;;;;;;;;;15.30;97.60;;;;;;5059873;28;19916;-64
2021/06/21 08:00:32;;;;;;;;;;;15.40;97.70;;;;;;5060142;28;19977;-64
2021/06/21 08:02:58;;;;;;;;;;;15.60;97.80;;;;;;5057478;28;19920;-65
2021/06/21 08:05:24;;;;;;;;;;;15.70;97.80;;;;;;5058327;28;19909;-65
2021/06/21 08:07:50;;;;;;;;;;;15.70;97.30;;;;;;5058545;28;19927;-65
2021/06/21 08:10:16;;;;;;;;;;;15.80;97.30;;;;;;5060353;28;19936;-64
2021/06/21 08:12:42;;;;;;;;;;;15.90;97.30;;;;;;5060182;28;20348;-64
2021/06/21 08:15:09;;;;;;;;;;;16.00;97.30;;;;;;5062410;28;19920;-63
2021/06/21 08:17:34;;;;;;;;;;;16.00;96.90;;;;;;5061520;28;20374;-64
2021/06/21 08:20:00;;;;;;;;;;;16.00;96.40;;;;;;5061365;28;19964;-66
2021/06/21 08:22:26;;;;;;;;;;;16.20;96.40;;;;;;5057396;28;19927;-66
2021/06/21 08:24:52;;;;;;;;;;;16.20;96.20;;;;;;5060838;28;20454;-67
2021/06/21 08:27:17;;;;;;;;;;;16.40;96.50;;;;;;5059939;28;19912;-64
2021/06/21 08:29:43;;;;;;;;;;;16.50;96.00;;;;;;5057424;28;19962;-64
2021/06/21 08:32:09;;;;;;;;;;;16.80;96.00;;;;;;5053725;28;20370;-63
2021/06/21 08:34:35;;;;;;;;;;;17.00;95.70;;;;;;5068164;28;19944;-63
2021/06/21 08:37:01;;;;;;;;;;;17.10;95.40;;;;;;5061557;28;20027;-64
2021/06/21 08:39:26;;;;;;;;;;;16.80;94.50;;;;;;5060336;28;20022;-63
2021/06/21 08:41:53;;;;;;;;;;;17.10;95.50;;;;;;5060553;28;19913;-64
2021/06/21 08:44:19;;;;;;;;;;;17.10;94.60;;;;;;5059161;28;19955;-63
2021/06/21 08:46:45;;;;;;;;;;;17.30;94.80;;;;;;5057378;28;19959;-63
2021/06/21 08:49:12;;;;;;;;;;;17.20;94.50;;;;;;5054586;28;20616;-63
2021/06/21 08:51:39;;;;;;;;;;;17.30;94.80;;;;;;5056131;28;19998;-63
2021/06/21 08:54:05;;;;;;;;;;;17.40;94.80;;;;;;5054271;28;19931;-63
2021/06/21 08:56:31;;;;;;;;;;;17.40;94.40;;;;;;5055947;28;19920;-64
2021/06/21 08:58:56;;;;;;;;;;;17.20;92.80;;;;;;5059260;28;19920;-64
2021/06/21 09:01:22;;;;;;;;;;;17.30;94.20;;;;;;5059464;28;19912;-64
2021/06/21 09:03:47;;;;;;;;;;;17.40;94.30;;;;;;5058599;28;19923;-65
2021/06/21 09:06:20;;;;;;;;;;;17.60;94.40;;;;;;5060604;28;19923;-64
2021/06/21 09:09:11;;;;;;;;;;;17.50;94.30;;;;;;5054439;28;20047;-64
2021/06/21 09:11:46;;;;;;;;;;;17.20;93.30;;;;;;5052494;28;20312;-64
2021/06/21 09:14:23;;;;;;;;;;;17.00;94.00;;;;;;5064185;28;20070;-64
2021/06/21 09:16:49;;;;;;;;;;;17.00;94.80;;;;;;5052017;28;20184;-64
2021/06/21 09:19:17;;;;;;;;;;;17.00;94.40;;;;;;5060464;28;20051;-65
2021/06/21 09:21:42;;;;;;;;;;;16.90;94.10;;;;;;5053937;28;19967;-64
2021/06/21 09:24:27;;;;;;;;;;;17.00;95.00;;;;;;5061710;28;20717;-64
2021/06/21 09:26:54;;;;;;;;;;;16.80;93.90;;;;;;5048145;28;19969;-65
2021/06/21 09:29:32;;;;;;;;;;;16.80;94.60;;;;;;5058541;28;19938;-64
2021/06/21 09:31:57;;;;;;;;;;;16.80;94.60;;;;;;5054219;28;19980;-64
2021/06/21 09:34:24;;;;;;;;;;;17.00;94.60;;;;;;5061482;28;19961;-65
2021/06/21 09:36:50;;;;;;;;;;;17.00;95.00;;;;;;5052757;28;20312;-65
2021/06/21 09:39:23;;;;;;;;;;;17.00;93.60;;;;;;5058190;28;20578;-64
2021/06/21 09:42:27;;;;;;;;;;;17.00;94.80;;;;;;5053894;28;20153;-65
2021/06/21 09:44:54;;;;;;;;;;;16.90;94.10;;;;;;4993438;28;19932;-65
2021/06/21 09:47:20;;;;;;;;;;;16.80;94.40;;;;;;5013454;28;19995;-65
2021/06/21 09:50:04;;;;;;;;;;;16.70;94.20;;;;;;5035970;28;20313;-64
2021/06/21 09:52:36;;;;;;;;;;;16.60;94.00;;;;;;5055509;28;19924;-64
2021/06/21 09:55:21;;;;;;;;;;;16.90;95.30;;;;;;5054426;28;19921;-65
2021/06/21 09:58:03;;;;;;;;;;;16.80;94.30;;;;;;5054771;28;20261;-64
2021/06/21 10:00:29;;;;;;;;;;;17.00;95.20;;;;;;5061392;28;20011;-65
2021/06/21 10:03:05;;;;;;;;;;;17.00;94.90;;;;;;5060743;28;19943;-64
2021/06/21 10:05:30;;;;;;;;;;;17.10;94.90;;;;;;5061603;28;19916;-65
2021/06/21 10:07:57;;;;;;;;;;;17.20;95.10;;;;;;5058012;28;19916;-64
2021/06/21 10:10:22;;;;;;;;;;;17.10;94.20;;;;;;5054816;28;19912;-65
2021/06/21 10:12:48;;;;;;;;;;;17.20;94.90;;;;;;5053745;28;19920;-65
2021/06/21 10:15:14;;;;;;;;;;;17.30;94.90;;;;;;5058639;28;19942;-65
2021/06/21 10:17:40;;;;;;;;;;;17.40;95.00;;;;;;5056582;28;19935;-65
2021/06/21 10:20:06;;;;;;;;;;;17.50;94.70;;;;;;5059717;28;20291;-64
2021/06/21 10:22:33;;;;;;;;;;;17.50;94.10;;;;;;5053892;28;20332;-65
2021/06/21 10:24:59;;;;;;;;;;;17.60;93.80;;;;;;5055982;28;19972;-65
2021/06/21 10:27:25;;;;;;;;;;;17.70;93.60;;;;;;5056886;28;19912;-65
2021/06/21 10:29:51;;;;;;;;;;;17.80;93.80;;;;;;5061088;28;20002;-65
2021/06/21 10:32:17;;;;;;;;;;;17.80;93.60;;;;;;5056621;28;19995;-65
2021/06/21 10:34:46;;;;;;;;;;;17.70;93.00;;;;;;5056008;28;19920;-65
2021/06/21 10:37:17;;;;;;;;;;;17.80;93.30;;;;;;5059470;28;19923;-65
2021/06/21 10:39:47;;;;;;;;;;;17.80;93.00;;;;;;5063995;28;19913;-65
2021/06/21 10:42:12;;;;;;;;;;;17.70;93.10;;;;;;5060666;28;20003;-65
2021/06/21 10:44:42;;;;;;;;;;;17.60;93.60;;;;;;5061085;28;20244;-65
2021/06/21 10:47:22;;;;;;;;;;;17.50;92.90;;;;;;5062219;28;19919;-65
2021/06/21 10:49:56;;;;;;;;;;;17.70;93.90;;;;;;5063965;28;20011;-65
2021/06/21 10:52:31;;;;;;;;;;;17.70;93.50;;;;;;5061086;28;20027;-65
2021/06/21 10:57:55;;;;;;;;;;;17.50;93.30;;;;;;5059356;28;19986;-65
2021/06/21 11:00:31;;;;;;;;;;;17.80;93.60;;;;;;5061574;28;19982;-65
2021/06/21 11:02:57;;;;;;;;;;;17.90;93.40;;;;;;5056394;28;19912;-65
2021/06/21 11:05:42;;;;;;;;;;;17.60;92.00;;;;;;5054818;28;19944;-65
2021/06/21 11:08:14;;;;;;;;;;;17.70;92.90;;;;;;5052069;28;19942;-65
2021/06/21 11:10:39;;;;;;;;;;;17.50;93.40;;;;;;5059722;28;20099;-65
2021/06/21 11:13:24;;;;;;;;;;;17.60;93.70;;;;;;5061868;28;20014;-64
2021/06/21 11:16:08;;;;;;;;;;;17.50;93.60;;;;;;5058001;28;19971;-65
2021/06/21 11:18:33;;;;;;;;;;;17.30;93.00;;;;;;5061546;28;19916;-65
2021/06/21 11:21:10;;;;;;;;;;;17.10;93.30;;;;;;5063284;28;20209;-65
2021/06/21 11:23:37;;;;;;;;;;;17.10;93.90;;;;;;5059379;28;19978;-65
2021/06/21 11:26:03;;;;;;;;;;;17.00;93.10;;;;;;5062485;28;19943;-65
2021/06/21 11:28:38;;;;;;;;;;;17.00;94.00;;;;;;5059407;28;19928;-65
2021/06/21 11:31:19;;;;;;;;;;;17.00;94.50;;;;;;5056608;28;19951;-65
2021/06/21 11:34:06;;;;;;;;;;;17.00;94.70;;;;;;5060851;28;19913;-65
2021/06/21 11:36:48;;;;;;;;;;;16.90;94.60;;;;;;5061429;28;20168;-65
2021/06/21 11:39:24;;;;;;;;;;;16.90;95.30;;;;;;5063791;28;19931;-65
2021/06/21 11:42:01;;;;;;;;;;;16.80;94.50;;;;;;5071558;28;20131;-65
2021/06/21 11:44:36;;;;;;;;;;;16.60;95.10;;;;;;5060827;28;19909;-65
2021/06/21 11:47:02;;;;;;;;;;;16.70;95.60;;;;;;5063414;28;19932;-65
2021/06/21 11:49:28;;;;;;;;;;;16.60;95.40;;;;;;5063861;28;20511;-65
2021/06/21 11:51:59;;;;;;;;;;;16.50;95.70;;;;;;5061058;28;19917;-65
2021/06/21 11:54:24;;;;;;;;;;;16.50;95.90;;;;;;5061252;28;20003;-65
2021/06/21 11:56:54;;;;;;;;;;;16.60;96.10;;;;;;5058190;28;20017;-65
2021/06/21 11:59:26;;;;;;;;;;;16.60;96.00;;;;;;5065656;28;19920;-65
2021/06/21 12:01:59;;;;;;;;;;;16.60;95.60;;;;;;5048885;28;19938;-64
2021/06/21 12:04:26;;;;;;;;;;;16.60;96.00;;;;;;5051082;28;19912;-65
2021/06/21 12:06:52;;;;;;;;;;;16.80;96.30;;;;;;5058521;28;20316;-65
2021/06/21 12:09:17;;;;;;;;;;;17.00;96.30;;;;;;5067949;28;19935;-64
2021/06/21 12:11:47;;;;;;;;;;;16.80;95.70;;;;;;5058092;28;19912;-64
2021/06/21 12:14:13;;;;;;;;;;;17.00;95.80;;;;;;5053458;28;19912;-65
2021/06/21 12:16:42;;;;;;;;;;;16.90;95.80;;;;;;5055552;28;19993;-65
2021/06/21 12:19:08;;;;;;;;;;;16.90;95.50;;;;;;5051849;28;20069;-65
2021/06/21 12:21:35;;;;;;;;;;;17.00;95.80;;;;;;5051444;28;20038;-65
2021/06/21 12:24:19;;;;;;;;;;;17.00;95.50;;;;;;5054898;28;19973;-65
2021/06/21 12:26:45;;;;;;;;;;;17.00;95.20;;;;;;5046033;28;20007;-65
2021/06/21 12:29:18;;;;;;;;;;;17.10;95.50;;;;;;5052491;28;19944;-65
2021/06/21 12:32:10;;;;;;;;;;;17.00;95.10;;;;;;5047150;28;20556;-65
2021/06/21 12:34:54;;;;;;;;;;;17.00;94.90;;;;;;5050756;28;21001;-65
2021/06/21 12:37:19;;;;;;;;;;;17.10;95.30;;;;;;5050301;28;19964;-65
2021/06/21 12:39:46;;;;;;;;;;;17.00;95.00;;;;;;5049634;28;19963;-65
2021/06/21 12:42:13;;;;;;;;;;;17.00;95.10;;;;;;5048971;28;20046;-65
2021/06/21 12:44:39;;;;;;;;;;;17.10;95.00;;;;;;5054017;28;20397;-65
2021/06/21 12:47:14;;;;;;;;;;;17.10;95.30;;;;;;5055010;28;20034;-65
2021/06/21 12:49:40;;;;;;;;;;;17.10;95.00;;;;;;5054880;28;19974;-65
2021/06/21 12:52:05;;;;;;;;;;;17.10;94.80;;;;;;5053066;28;19920;-67
2021/06/21 12:54:34;;;;;;;;;;;17.10;95.10;;;;;;5046451;28;19963;-66
2021/06/21 12:56:59;;;;;;;;;;;17.20;95.30;;;;;;5049620;28;19988;-65
2021/06/21 12:59:25;;;;;;;;;;;17.10;94.90;;;;;;5055911;28;20554;-65
2021/06/21 13:01:50;;;;;;;;;;;17.20;95.50;;;;;;5056671;28;19959;-65
2021/06/21 13:04:16;;;;;;;;;;;17.00;94.40;;;;;;5059355;28;19912;-66
2021/06/21 13:06:43;;;;;;;;;;;17.10;94.90;;;;;;5053131;28;19957;-64
2021/06/21 13:09:16;;;;;;;;;;;17.20;94.80;;;;;;5051796;28;19917;-65
2021/06/21 13:11:52;;;;;;;;;;;17.50;95.10;;;;;;5056904;28;19921;-65
2021/06/21 13:14:19;;;;;;;;;;;17.40;94.10;;;;;;5059608;28;20651;-65
2021/06/21 13:16:44;;;;;;;;;;;17.50;94.90;;;;;;5052344;28;20237;-65
2021/06/21 13:19:12;;;;;;;;;;;17.40;93.70;;;;;;5055201;28;19993;-66
2021/06/21 13:21:37;;;;;;;;;;;17.50;95.00;;;;;;5054457;28;19966;-65
2021/06/21 13:24:03;;;;;;;;;;;17.30;95.00;;;;;;5056596;28;19920;-65
2021/06/21 13:26:32;;;;;;;;;;;17.30;94.30;;;;;;5057172;28;19912;-65
2021/06/21 13:28:58;;;;;;;;;;;17.30;94.40;;;;;;5053255;28;19913;-65
2021/06/21 13:31:24;;;;;;;;;;;17.20;94.30;;;;;;5056666;28;20453;-65
2021/06/21 13:33:51;;;;;;;;;;;17.30;95.20;;;;;;5056970;28;20066;-65
2021/06/21 13:36:16;;;;;;;;;;;17.30;95.00;;;;;;5057977;28;19916;-65
2021/06/21 13:38:45;;;;;;;;;;;17.30;94.80;;;;;;5054051;28;19917;-65
2021/06/21 13:41:21;;;;;;;;;;;17.20;94.80;;;;;;5057931;28;20011;-65
2021/06/21 13:43:47;;;;;;;;;;;17.30;94.80;;;;;;5058095;28;19939;-65
2021/06/21 13:46:14;;;;;;;;;;;17.20;95.00;;;;;;5059393;28;20406;-65
2021/06/21 13:48:40;;;;;;;;;;;17.00;94.80;;;;;;5057937;28;19916;-66
2021/06/21 13:51:18;;;;;;;;;;;17.10;94.80;;;;;;5058942;28;19936;-65
2021/06/21 13:53:44;;;;;;;;;;;17.20;95.10;;;;;;5055657;28;19917;-65
2021/06/21 13:56:22;;;;;;;;;;;17.30;95.10;;;;;;5056593;28;19943;-65
2021/06/21 13:58:54;;;;;;;;;;;17.40;95.10;;;;;;5057375;28;20027;-65
2021/06/21 14:01:21;;;;;;;;;;;17.40;94.60;;;;;;5057416;28;20378;-65
2021/06/21 14:03:53;;;;;;;;;;;17.50;94.80;;;;;;5055421;28;19996;-66
2021/06/21 14:06:24;;;;;;;;;;;17.30;94.20;;;;;;5063406;28;19908;-65
2021/06/21 14:08:50;;;;;;;;;;;17.10;93.90;;;;;;5057523;28;19919;-66
2021/06/21 14:11:16;;;;;;;;;;;17.20;94.80;;;;;;5061265;28;19913;-65
2021/06/21 14:13:42;;;;;;;;;;;17.20;94.50;;;;;;5061047;28;19938;-65
2021/06/21 14:16:09;;;;;;;;;;;17.00;94.70;;;;;;5063950;28;19971;-65
2021/06/21 14:18:35;;;;;;;;;;;17.10;95.30;;;;;;5057281;28;20344;-65
2021/06/21 14:21:01;;;;;;;;;;;17.10;94.60;;;;;;5059818;28;19932;-65
2021/06/21 14:23:26;;;;;;;;;;;17.20;95.10;;;;;;5058731;28;19952;-65
2021/06/21 14:25:52;;;;;;;;;;;17.10;94.80;;;;;;5062985;28;19981;-65